Vandenberg Air Force Base
KVBG : rendu visible

Aérodrome :











RETROUVEZ-NOUS SUR...

 
LOGIN :

S'inscrire | Disclaimer

   EN    FR    IT 

 









Légende :    VFR   VFR Marginal   IFR   IFR Intensif   IFR Très Intensif
Visi : 
Plafond : 
>= 8 km
>= 3000ft
5 à 8 km
1000 à 3000 ft
1500m à 5 km
500 à 1000 ft
800 à 1500m
200 à 500 ft
< 800m
< 200 ft
Symboles :   Orages  Brouillard  Fortes neiges  Fortes précipitations  Vent > 20 kt






- Altitude de l'aérodrome : 369 ft


KVBG - Vandenberg Air Force Base

DERNIER METAR :
  • 072358Z AUTO 33012KT 9SM BKN016 17/12 A2998 RMK AO2 BKN V OVC SLP155 T01740124 10192 20156 57007 $

METARs EXPIRÉS :
  • 072343Z AUTO 36012KT 9SM OVC015 18/13 A2998 RMK AO2 SLP155
  • 072258Z 32013KT 10SM OVC013 18/13 A2999 RMK AO2A SLP158 T01790129
  • 072213Z 32010KT 10SM OVC014 18/13 A3000 RMK AO2A SLP161
  • 072158Z 32012G17KT 10SM OVC015 18/13 A3000 RMK AO2A SLP161 T01820130

TAF TAF KVBG
Valide du 07 à 22h jusqu'au 09 à 04h UTC


072215Z 0722/0904 33010G15KT 9999 BKN015 QNH3000INS
BECMG 0800/0801 34009KT 9999 OVC006 QNH2998INS
BECMG 0803/0804 VRB06KT 4800 BR OVC004 QNH2997INS
BECMG 0806/0807 VRB06KT 1600 BR OVC002 QNH2998INS
BECMG 0809/0810 VRB06KT 0400 -DZ FG VV001 QNH3000INS
BECMG 0815/0816 35006KT 1600 BR OVC002 QNH3001INS
BECMG 0816/0817 34009KT 4800 BR OVC003 QNH3002INS
BECMG 0817/0818 34009KT 9999 NSW OVC005 QNH3002INS
BECMG 0818/0819 33010KT 9999 BKN006 QNH3001INS
BECMG 0819/0820 32012KT 9999 SCT010 QNH2998INS
BECMG 0900/0901 32010KT 9999 BKN008 QNH2997INS
BECMG 0902/0903 34007KT 9999 OVC005 QNH2995INS TX19/0820Z TN12/0814Z LAST NO AMDS AFT 0800 NEXT 1014
FIR KZLA / Amérique du Nord



MET'MAP, la Météo Aéronautique d'un coup d'oeil ! - Copyright ORBIFLY Décembre 2007 - Disclaimer

ORBIFLY MET'MAP TEAM :

Programmation & Développement : Alexandra Zaïnal
Sur une idée originale de : Baudouin d'Aumeries
Assistance à la programmation : Marc-Olivier Méhu
Soutien technique & logistique : Manuel Goepfert

Contact : metmap@orbifly.com




SOURCES & CREDITS :

   NOAA       Earth
Advisory